createdAt,value
2022-10-31T00:01:34.151Z,70228.84
2022-10-31T00:04:01.666Z,70224.44
2022-10-31T00:06:29.230Z,70230.03
2022-10-31T00:08:59.256Z,70263.25
2022-10-31T00:11:27.297Z,70195.94
2022-10-31T00:13:54.716Z,70221.84
2022-10-31T00:16:24.817Z,70184.22
2022-10-31T00:18:57.617Z,70170.13
2022-10-31T00:21:25.443Z,70171.03
2022-10-31T00:23:52.859Z,70205.59
2022-10-31T00:26:21.048Z,70197.19
2022-10-31T00:28:48.682Z,70191.94
2022-10-31T00:31:16.133Z,70206.09
2022-10-31T00:33:43.843Z,70182.59
2022-10-31T00:36:17.922Z,70172.91
2022-10-31T00:38:46.779Z,70193.78
2022-10-31T00:41:16.878Z,70166.72
2022-10-31T00:43:45.028Z,70160.91
2022-10-31T00:46:13.865Z,70184.97
2022-10-31T00:48:42.449Z,70152.38
2022-10-31T00:51:10.611Z,70132.75
2022-10-31T00:53:37.983Z,70173.88
2022-10-31T00:56:06.319Z,70157.72
2022-10-31T00:58:33.800Z,70172.44
2022-10-31T01:01:01.259Z,70146.28
2022-10-31T01:03:31.525Z,70161.00
2022-10-31T01:06:05.042Z,70137.50
2022-10-31T01:08:34.589Z,70163.34
2022-10-31T01:11:15.344Z,70118.72
2022-10-31T01:13:43.078Z,70146.31
2022-10-31T01:16:14.109Z,70123.44
2022-10-31T01:18:41.990Z,70180.41
2022-10-31T01:21:13.638Z,70138.44
2022-10-31T01:23:41.495Z,70154.59
2022-10-31T01:26:15.091Z,70158.69
2022-10-31T01:28:56.138Z,70122.31
2022-10-31T01:31:29.024Z,70152.28
2022-10-31T01:33:57.255Z,70155.81
2022-10-31T01:36:30.324Z,70152.31
2022-10-31T01:39:00.251Z,70122.66
2022-10-31T01:41:33.658Z,70144.97
2022-10-31T01:44:04.578Z,70121.50
2022-10-31T01:46:41.998Z,70103.59
2022-10-31T01:49:33.559Z,70129.41
2022-10-31T01:52:22.179Z,70113.03
2022-10-31T01:55:01.802Z,70128.31
2022-10-31T01:57:32.783Z,70104.22
2022-10-31T02:00:05.732Z,70112.16
2022-10-31T02:02:53.510Z,70101.56
2022-10-31T02:05:25.557Z,70119.50
2022-10-31T02:08:17.699Z,70084.00
2022-10-31T02:10:45.824Z,70103.69
2022-10-31T02:13:14.009Z,70064.38
2022-10-31T02:15:52.320Z,70099.88
2022-10-31T02:18:21.357Z,70108.41
2022-10-31T02:21:05.274Z,70081.72
2022-10-31T02:24:24.760Z,70089.34
2022-10-31T02:27:26.968Z,70096.13
2022-10-31T02:30:12.878Z,70094.94
2022-10-31T02:33:04.043Z,70095.81
2022-10-31T02:35:50.916Z,70096.13
2022-10-31T02:38:45.334Z,70103.16
2022-10-31T02:41:36.006Z,70093.47
2022-10-31T02:44:29.990Z,70141.13
2022-10-31T02:47:10.465Z,70094.41
2022-10-31T02:49:41.234Z,70073.28
2022-10-31T02:52:30.404Z,70108.53
2022-10-31T02:55:35.546Z,70132.31
2022-10-31T02:58:11.835Z,70099.16
2022-10-31T03:01:07.557Z,70042.53
2022-10-31T03:03:51.863Z,70068.34
2022-10-31T03:06:33.412Z,70046.38
2022-10-31T03:09:03.808Z,70064.59
2022-10-31T03:11:41.181Z,70076.91
2022-10-31T03:14:38.838Z,70044.63
2022-10-31T03:17:10.555Z,70057.56
2022-10-31T03:19:43.295Z,70038.81
2022-10-31T03:22:18.746Z,70084.56
2022-10-31T03:24:48.239Z,70029.72
2022-10-31T03:27:18.144Z,70052.94
2022-10-31T03:29:48.320Z,70050.00
2022-10-31T03:32:26.575Z,70037.09
2022-10-31T03:34:57.435Z,70020.66
2022-10-31T03:37:28.323Z,70038.28
2022-10-31T03:39:59.468Z,70011.31
2022-10-31T03:42:31.133Z,70050.00
2022-10-31T03:45:01.478Z,70008.69
2022-10-31T03:47:29.352Z,70052.41
2022-10-31T03:49:57.579Z,70030.09
2022-10-31T03:52:57.011Z,70007.88
2022-10-31T03:55:42.967Z,70014.31
2022-10-31T04:00:51.637Z,70022.53
2022-10-31T04:03:28.199Z,70026.03
2022-10-31T04:06:03.034Z,69999.66
2022-10-31T04:08:34.051Z,70028.41
2022-10-31T04:11:04.306Z,70007.03
2022-10-31T04:13:36.752Z,69999.72
2022-10-31T04:16:15.986Z,69954.00
2022-10-31T04:18:45.112Z,69992.41
2022-10-31T04:21:12.405Z,69996.81
2022-10-31T04:23:39.829Z,69984.78
2022-10-31T04:26:22.363Z,70000.03
2022-10-31T04:28:49.710Z,69966.66
2022-10-31T04:31:17.420Z,69969.59
2022-10-31T04:33:46.757Z,69956.13
2022-10-31T04:36:14.246Z,69987.16
2022-10-31T04:38:42.934Z,69976.63
2022-10-31T04:41:22.848Z,69986.88
2022-10-31T04:43:59.126Z,69967.28
2022-10-31T04:46:28.405Z,69982.25
2022-10-31T04:48:58.073Z,69962.88
2022-10-31T04:51:25.593Z,69955.00
2022-10-31T04:53:53.422Z,69961.47
2022-10-31T04:56:39.372Z,69940.97
2022-10-31T04:59:13.062Z,69923.09
2022-10-31T05:01:53.289Z,69955.94
2022-10-31T05:04:34.366Z,69966.47
2022-10-31T05:07:01.892Z,69945.97
2022-10-31T05:09:29.248Z,69964.13
2022-10-31T05:11:56.635Z,69930.47
2022-10-31T05:14:47.630Z,69937.19
2022-10-31T05:17:34.435Z,69939.53
2022-10-31T05:20:27.954Z,69928.47
2022-10-31T05:23:13.010Z,69946.06
2022-10-31T05:25:42.825Z,69898.31
2022-10-31T05:28:10.257Z,69937.84
2022-10-31T05:30:38.344Z,69927.31
2022-10-31T05:33:08.415Z,69935.22
2022-10-31T05:35:56.075Z,69942.56
2022-10-31T05:38:39.653Z,69900.97
2022-10-31T05:41:17.398Z,69907.44
2022-10-31T05:43:47.761Z,69905.41
2022-10-31T05:46:17.145Z,69919.75
2022-10-31T05:49:07.367Z,69894.28
2022-10-31T05:52:00.592Z,69882.28
2022-10-31T05:54:37.280Z,69922.13
2022-10-31T05:57:04.725Z,69923.28
2022-10-31T05:59:32.110Z,69922.97
2022-10-31T06:01:59.632Z,69899.56
2022-10-31T06:04:47.072Z,69916.28
2022-10-31T06:07:14.554Z,69886.38
2022-10-31T06:09:42.014Z,69911.28
2022-10-31T06:12:09.437Z,69924.44
2022-10-31T06:14:55.470Z,69903.34
2022-10-31T06:17:22.803Z,69908.94
2022-10-31T06:22:26.238Z,70023.19
2022-10-31T06:24:53.722Z,70065.88
2022-10-31T06:27:29.527Z,70070.00
2022-10-31T06:29:58.638Z,70031.28
2022-10-31T06:32:33.660Z,70056.50
2022-10-31T06:35:01.065Z,70015.44
2022-10-31T06:37:28.328Z,70009.03
2022-10-31T06:40:04.700Z,70009.38
2022-10-31T06:42:41.280Z,69954.06
2022-10-31T06:45:10.502Z,69971.09
2022-10-31T06:51:04.054Z,69976.25
2022-10-31T06:53:32.709Z,70013.75
2022-10-31T06:56:01.160Z,70006.09
2022-10-31T06:58:28.533Z,70028.91
2022-10-31T07:01:01.632Z,70010.41
2022-10-31T07:03:29.292Z,70033.59
2022-10-31T07:05:58.140Z,70028.00
2022-10-31T07:08:27.466Z,70040.00
2022-10-31T07:10:57.601Z,70037.59
2022-10-31T07:13:28.771Z,70036.75
2022-10-31T07:16:07.860Z,70056.97
2022-10-31T07:18:37.192Z,70018.28
2022-10-31T07:21:05.301Z,70015.34
2022-10-31T07:23:33.185Z,70021.56
2022-10-31T07:26:20.490Z,69997.81
2022-10-31T07:28:49.207Z,70021.25
2022-10-31T07:31:19.712Z,70018.00
2022-10-31T07:33:47.151Z,70038.50
2022-10-31T07:36:29.719Z,70037.91
2022-10-31T07:39:03.256Z,70009.44
2022-10-31T07:41:32.374Z,70025.84
2022-10-31T07:43:59.923Z,70063.66
2022-10-31T07:46:47.184Z,70038.09
2022-10-31T07:49:25.873Z,70053.03
2022-10-31T07:52:11.897Z,70071.47
2022-10-31T07:54:57.830Z,70089.63
2022-10-31T07:57:25.911Z,70088.69
2022-10-31T07:59:54.249Z,70109.22
2022-10-31T08:02:21.618Z,70107.75
2022-10-31T08:04:49.072Z,70134.69
2022-10-31T08:07:45.557Z,70129.38
2022-10-31T08:10:19.415Z,70135.22
2022-10-31T08:12:47.288Z,70138.13
2022-10-31T08:15:15.244Z,70126.31
2022-10-31T08:17:42.628Z,70162.09
2022-10-31T08:20:11.982Z,70169.06
2022-10-31T08:23:04.748Z,70213.69
2022-10-31T08:25:38.653Z,70210.97
2022-10-31T08:28:07.809Z,70216.81
2022-10-31T08:30:38.320Z,70269.41
2022-10-31T08:33:26.195Z,70257.56
2022-10-31T08:36:16.541Z,70286.06
2022-10-31T08:39:02.152Z,70272.19
2022-10-31T08:41:31.412Z,70274.44
2022-10-31T08:44:00.340Z,70321.44
2022-10-31T08:46:27.672Z,70305.19
2022-10-31T08:48:55.017Z,70321.84
2022-10-31T08:51:23.792Z,70365.38
2022-10-31T08:53:54.441Z,70336.78
2022-10-31T08:56:56.475Z,70382.31
2022-10-31T08:59:42.590Z,70386.13
2022-10-31T09:02:33.045Z,70414.94
2022-10-31T09:05:01.616Z,70393.34
2022-10-31T09:07:30.403Z,70432.47
2022-10-31T09:09:59.283Z,70410.84
2022-10-31T09:12:27.271Z,70482.13
2022-10-31T09:15:10.306Z,70435.47
2022-10-31T09:17:56.248Z,70529.78
2022-10-31T09:20:38.592Z,70490.44
2022-10-31T09:23:13.181Z,70526.63
2022-10-31T09:25:46.165Z,70537.44
2022-10-31T09:28:34.964Z,70578.94
2022-10-31T09:31:07.732Z,70576.16
2022-10-31T09:33:55.811Z,70577.28
2022-10-31T09:36:39.431Z,70651.63
2022-10-31T09:39:20.381Z,70618.44
2022-10-31T09:42:00.338Z,70693.06
2022-10-31T09:45:34.118Z,70695.22
2022-10-31T09:48:26.127Z,70753.81
2022-10-31T09:51:26.897Z,70824.16
2022-10-31T09:54:18.513Z,70939.19
2022-10-31T09:56:46.436Z,71121.66
2022-10-31T09:59:31.326Z,71353.16
2022-10-31T10:02:03.778Z,71580.13
2022-10-31T10:04:44.578Z,71785.31
2022-10-31T10:07:35.432Z,71875.69
2022-10-31T10:10:52.066Z,72097.41
2022-10-31T10:14:01.177Z,72228.03
2022-10-31T10:16:48.311Z,72355.25
2022-10-31T10:19:31.560Z,72506.63
2022-10-31T10:21:58.906Z,72552.38
2022-10-31T10:24:46.445Z,72524.06
2022-10-31T10:27:41.450Z,72472.84
2022-10-31T10:30:21.825Z,72499.75
2022-10-31T10:33:00.396Z,72445.28
2022-10-31T10:35:33.843Z,72611.97
2022-10-31T10:38:11.258Z,72761.59
2022-10-31T10:40:39.183Z,72899.34
2022-10-31T10:43:24.931Z,73029.94
2022-10-31T10:46:29.716Z,73163.38
2022-10-31T10:49:20.138Z,73284.16
2022-10-31T10:52:43.180Z,73335.97
2022-10-31T10:55:25.879Z,73510.38
2022-10-31T10:58:07.074Z,73411.13
2022-10-31T11:00:42.129Z,73550.97
2022-10-31T11:03:11.356Z,73680.47
2022-10-31T11:06:02.070Z,73748.44
2022-10-31T11:08:32.322Z,73837.50
2022-10-31T11:11:15.776Z,73842.72
2022-10-31T11:13:44.634Z,73822.75
2022-10-31T11:16:16.064Z,73687.69
2022-10-31T11:18:46.865Z,73667.00
2022-10-31T11:21:30.543Z,73810.00
2022-10-31T11:24:15.638Z,73889.72
2022-10-31T11:26:44.816Z,73896.06
2022-10-31T11:29:17.979Z,73876.09
2022-10-31T11:31:47.906Z,73927.31
2022-10-31T11:34:20.854Z,73895.50
2022-10-31T11:36:49.163Z,73621.47
2022-10-31T11:39:23.788Z,73342.69
2022-10-31T11:41:53.984Z,73273.56
2022-10-31T11:44:26.618Z,73263.22
2022-10-31T11:46:59.707Z,73381.38
2022-10-31T11:49:36.592Z,73424.00
2022-10-31T11:52:18.555Z,73453.56
2022-10-31T11:54:55.327Z,73484.81
2022-10-31T11:57:30.755Z,73531.69
2022-10-31T12:00:01.479Z,73460.59
2022-10-31T12:02:49.302Z,73322.00
2022-10-31T12:05:21.919Z,73263.53
2022-10-31T12:07:50.339Z,73279.47
2022-10-31T12:10:22.047Z,73383.03
2022-10-31T12:13:01.098Z,73460.44
2022-10-31T12:15:32.797Z,73378.75
2022-10-31T12:18:07.343Z,73208.13
2022-10-31T12:20:58.132Z,72986.25
2022-10-31T12:24:13.289Z,72740.19
2022-10-31T12:27:07.549Z,72344.06
2022-10-31T12:29:37.518Z,72299.38
2022-10-31T12:32:33.811Z,72189.56
2022-10-31T12:35:26.603Z,72164.81
2022-10-31T12:38:31.285Z,72030.13
2022-10-31T12:41:25.615Z,71937.97
2022-10-31T12:44:01.550Z,71932.81
2022-10-31T12:47:05.655Z,71902.13
2022-10-31T12:49:51.099Z,71874.28
2022-10-31T12:53:06.443Z,71843.97
2022-10-31T12:55:57.429Z,71803.63
2022-10-31T12:58:33.781Z,71763.94
2022-10-31T13:01:25.448Z,71719.91
2022-10-31T13:04:04.549Z,71686.88
2022-10-31T13:06:44.721Z,71703.41
2022-10-31T13:09:18.769Z,71681.34
2022-10-31T13:12:02.039Z,71679.84
2022-10-31T13:14:35.875Z,71647.38
2022-10-31T13:17:03.429Z,71664.69
2022-10-31T13:19:41.005Z,71685.91
2022-10-31T13:22:31.619Z,71660.59
2022-10-31T13:25:04.114Z,71657.03
2022-10-31T13:27:50.039Z,71625.44
2022-10-31T13:30:21.880Z,71646.06
2022-10-31T13:33:04.769Z,71664.63
2022-10-31T13:35:50.718Z,71624.91
2022-10-31T13:38:53.862Z,71614.75
2022-10-31T13:42:00.624Z,71626.09
2022-10-31T13:44:37.385Z,71601.94
2022-10-31T13:47:21.746Z,71613.59
2022-10-31T13:49:49.147Z,71628.16
2022-10-31T13:52:27.819Z,71625.47
2022-10-31T13:54:58.406Z,71615.63
2022-10-31T13:57:28.993Z,71651.19
2022-10-31T14:00:05.788Z,71588.31
2022-10-31T14:02:59.824Z,71623.88
2022-10-31T14:05:37.131Z,71589.66
2022-10-31T14:08:07.123Z,71578.63
2022-10-31T14:10:38.745Z,71575.59
2022-10-31T14:13:15.197Z,71570.81
2022-10-31T14:15:53.495Z,71538.63
2022-10-31T14:18:35.491Z,71557.22
2022-10-31T14:21:14.459Z,71547.75
2022-10-31T14:23:43.650Z,71560.88
2022-10-31T14:26:32.099Z,71556.78
2022-10-31T14:29:23.957Z,71473.38
2022-10-31T14:32:11.661Z,71467.53
2022-10-31T14:34:55.804Z,71467.06
2022-10-31T14:37:41.744Z,71468.97
2022-10-31T14:40:35.378Z,71390.47
2022-10-31T14:43:17.328Z,71380.47
2022-10-31T14:45:53.285Z,71405.88
2022-10-31T14:48:39.343Z,71367.00
2022-10-31T14:51:23.035Z,71350.47
2022-10-31T14:53:52.018Z,71311.84
2022-10-31T14:56:29.893Z,71265.56
2022-10-31T14:59:02.190Z,71276.69
2022-10-31T15:01:34.246Z,71269.34
2022-10-31T15:04:24.762Z,71273.03
2022-10-31T15:07:11.840Z,71250.25
2022-10-31T15:09:41.820Z,71260.13
2022-10-31T15:12:39.426Z,71103.63
2022-10-31T15:15:13.842Z,71208.59
2022-10-31T15:17:50.031Z,71181.31
2022-10-31T15:20:29.258Z,71138.06
2022-10-31T15:23:00.714Z,71139.97
2022-10-31T15:25:33.223Z,71102.94
2022-10-31T15:28:00.957Z,71081.38
2022-10-31T15:30:30.366Z,71091.56
2022-10-31T15:32:59.034Z,71086.38
2022-10-31T15:35:29.829Z,71029.47
2022-10-31T15:37:59.220Z,71001.13
2022-10-31T15:40:28.934Z,71023.50
2022-10-31T15:43:05.555Z,70971.44
2022-10-31T15:45:33.400Z,70963.50
2022-10-31T15:48:04.155Z,70954.72
2022-10-31T15:50:54.317Z,70948.88
2022-10-31T15:53:36.564Z,70890.31
2022-10-31T15:56:07.970Z,70913.50
2022-10-31T15:58:43.750Z,70872.09
2022-10-31T16:01:37.717Z,70844.28
2022-10-31T16:04:13.362Z,70885.88
2022-10-31T16:06:40.860Z,70854.56
2022-10-31T16:09:24.660Z,70813.19
2022-10-31T16:11:52.627Z,70815.97
2022-10-31T16:14:26.791Z,70816.31
2022-10-31T16:16:57.641Z,70782.34
2022-10-31T16:19:37.230Z,70780.34
2022-10-31T16:22:09.353Z,70751.34
2022-10-31T16:24:59.757Z,70802.00
2022-10-31T16:27:31.325Z,70730.78
2022-10-31T16:30:05.363Z,70716.63
2022-10-31T16:32:56.632Z,70733.22
2022-10-31T16:35:28.827Z,70736.53
2022-10-31T16:37:56.289Z,70715.25
2022-10-31T16:40:23.559Z,70691.34
2022-10-31T16:42:51.124Z,70713.88
2022-10-31T16:45:24.006Z,70692.63
2022-10-31T16:47:52.123Z,70706.91
2022-10-31T16:50:24.113Z,70680.00
2022-10-31T16:55:55.488Z,70656.47
2022-10-31T16:58:33.588Z,70604.81
2022-10-31T17:01:05.780Z,70657.47
2022-10-31T17:03:33.461Z,70675.50
2022-10-31T17:06:00.862Z,70617.88
2022-10-31T17:08:28.178Z,70605.50
2022-10-31T17:10:57.314Z,70592.00
2022-10-31T17:13:28.512Z,70622.47
2022-10-31T17:15:58.519Z,70622.50
2022-10-31T17:18:27.873Z,70604.50
2022-10-31T17:21:01.427Z,70585.94
2022-10-31T17:23:29.270Z,70615.44
2022-10-31T17:25:57.219Z,70614.59
2022-10-31T17:28:26.599Z,70599.22
2022-10-31T17:30:56.098Z,70608.09
2022-10-31T17:33:23.490Z,70609.91
2022-10-31T17:35:51.670Z,70588.66
2022-10-31T17:38:19.307Z,70573.06
2022-10-31T17:43:19.031Z,70543.34
2022-10-31T17:45:46.408Z,70531.00
2022-10-31T17:48:13.828Z,70550.50
2022-10-31T17:50:41.427Z,70541.06
2022-10-31T17:53:08.877Z,70556.72
2022-10-31T17:55:37.407Z,70516.84
2022-10-31T17:58:05.511Z,70504.47
2022-10-31T18:00:33.898Z,70529.59
2022-10-31T18:03:03.964Z,70561.78
2022-10-31T18:05:32.150Z,70480.28
2022-10-31T18:08:03.743Z,70544.94
2022-10-31T18:10:32.023Z,70538.75
2022-10-31T18:12:59.743Z,70542.88
2022-10-31T18:15:27.402Z,70533.09
2022-10-31T18:17:54.738Z,70555.84
2022-10-31T18:20:22.133Z,70507.72
2022-10-31T18:22:49.521Z,70538.38
2022-10-31T18:25:17.018Z,70559.63
2022-10-31T18:27:44.323Z,70575.31
2022-10-31T18:30:12.119Z,70545.75
2022-10-31T18:32:39.416Z,70546.94
2022-10-31T18:35:07.058Z,70572.66
2022-10-31T18:37:34.474Z,70518.06
2022-10-31T18:40:01.799Z,70539.41
2022-10-31T18:42:29.184Z,70538.81
2022-10-31T18:44:56.573Z,70482.16
2022-10-31T18:47:23.949Z,70488.09
2022-10-31T18:49:51.342Z,70507.00
2022-10-31T18:52:18.683Z,70501.16
2022-10-31T18:54:46.184Z,70489.34
2022-10-31T18:57:13.515Z,70493.53
2022-10-31T18:59:41.008Z,70520.41
2022-10-31T19:02:09.475Z,70485.91
2022-10-31T19:04:36.936Z,70504.81
2022-10-31T19:07:04.287Z,70468.84
2022-10-31T19:09:34.388Z,70448.81
2022-10-31T19:12:01.796Z,70499.56
2022-10-31T19:14:29.167Z,70488.41
2022-10-31T19:17:01.230Z,70452.47
2022-10-31T19:19:29.890Z,70436.00
2022-10-31T19:21:57.865Z,70430.16
2022-10-31T19:24:25.285Z,70455.81
2022-10-31T19:26:52.584Z,70422.53
2022-10-31T19:29:19.945Z,70431.41
2022-10-31T19:31:48.246Z,70444.38
2022-10-31T19:34:15.594Z,70425.53
2022-10-31T19:36:43.353Z,70386.59
2022-10-31T19:39:11.116Z,70389.84
2022-10-31T19:41:38.562Z,70442.63
2022-10-31T19:44:06.541Z,70443.25
2022-10-31T19:46:52.764Z,70381.09
2022-10-31T19:49:21.128Z,70417.97
2022-10-31T19:51:48.566Z,70426.81
2022-10-31T19:54:15.982Z,70413.88
2022-10-31T19:56:43.401Z,70405.66
2022-10-31T19:59:10.791Z,70371.50
2022-10-31T20:01:38.266Z,70369.44
2022-10-31T20:04:05.873Z,70384.50
2022-10-31T20:06:36.580Z,70379.78
2022-10-31T20:09:13.466Z,70381.84
2022-10-31T20:11:42.470Z,70401.59
2022-10-31T20:14:16.735Z,70375.94
2022-10-31T20:16:46.583Z,70369.25
2022-10-31T20:19:14.371Z,70364.56
2022-10-31T20:21:42.461Z,70371.09
2022-10-31T20:24:10.829Z,70367.28
2022-10-31T20:26:40.790Z,70320.72
2022-10-31T20:29:12.231Z,70364.03
2022-10-31T20:31:39.974Z,70363.75
2022-10-31T20:34:07.358Z,70322.28
2022-10-31T20:36:36.688Z,70350.84
2022-10-31T20:39:05.046Z,70358.19
2022-10-31T20:41:32.347Z,70327.81
2022-10-31T20:43:59.815Z,70349.91
2022-10-31T20:46:27.715Z,70327.50
2022-10-31T20:48:55.430Z,70362.53
2022-10-31T20:51:27.459Z,70355.66
2022-10-31T20:53:56.950Z,70401.94
2022-10-31T20:56:25.965Z,70379.28
2022-10-31T20:58:56.065Z,70353.09
2022-10-31T21:01:29.062Z,70397.56
2022-10-31T21:03:58.252Z,70339.28
2022-10-31T21:06:26.815Z,70393.47
2022-10-31T21:08:54.652Z,70372.84
2022-10-31T21:11:25.081Z,70326.25
2022-10-31T21:13:53.199Z,70394.03
2022-10-31T21:16:23.636Z,70375.81
2022-10-31T21:18:52.185Z,70349.31
2022-10-31T21:21:32.213Z,70376.13
2022-10-31T21:24:15.053Z,70355.25
2022-10-31T21:26:45.880Z,70351.97
2022-10-31T21:29:14.830Z,70349.38
2022-10-31T21:31:42.953Z,70360.56
2022-10-31T21:34:11.133Z,70332.91
2022-10-31T21:36:38.917Z,70347.91
2022-10-31T21:39:08.152Z,70301.72
2022-10-31T21:41:35.495Z,70333.53
2022-10-31T21:44:03.012Z,70279.41
2022-10-31T21:46:32.028Z,70320.06
2022-10-31T21:49:01.826Z,70342.13
2022-10-31T21:51:32.781Z,70289.44
2022-10-31T21:54:19.144Z,70324.22
2022-10-31T21:56:46.883Z,70276.50
2022-10-31T21:59:14.264Z,70304.81
2022-10-31T22:01:42.031Z,70263.03
2022-10-31T22:04:09.859Z,70338.09
2022-10-31T22:06:37.659Z,70297.50
2022-10-31T22:09:07.393Z,70335.78
2022-10-31T22:11:35.290Z,70311.63
2022-10-31T22:14:03.404Z,70284.28
2022-10-31T22:16:33.685Z,70256.03
2022-10-31T22:19:05.317Z,70274.31
2022-10-31T22:21:41.055Z,70291.69
2022-10-31T22:24:09.337Z,70277.56
2022-10-31T22:26:38.033Z,70279.66
2022-10-31T22:29:10.511Z,70271.44
2022-10-31T22:31:43.345Z,70312.97
2022-10-31T22:34:11.723Z,70230.16
2022-10-31T22:36:39.701Z,70238.84
2022-10-31T22:39:07.959Z,70282.41
2022-10-31T22:41:36.654Z,70255.91
2022-10-31T22:44:05.573Z,70245.31
2022-10-31T22:46:36.256Z,70273.28
2022-10-31T22:49:11.154Z,70252.72
2022-10-31T22:51:39.766Z,70224.78
2022-10-31T22:54:18.013Z,70230.97
2022-10-31T22:56:46.523Z,70262.19
2022-10-31T22:59:15.914Z,70243.34
2022-10-31T23:01:46.970Z,70256.56
2022-10-31T23:04:15.861Z,70264.84
2022-10-31T23:06:44.420Z,70252.75
2022-10-31T23:09:15.200Z,70256.91
2022-10-31T23:11:43.273Z,70239.28
2022-10-31T23:14:16.457Z,70240.53
2022-10-31T23:16:48.503Z,70262.28
2022-10-31T23:19:27.710Z,70283.44
2022-10-31T23:22:01.037Z,70233.69
2022-10-31T23:24:34.316Z,70250.19
2022-10-31T23:27:09.562Z,70278.69
2022-10-31T23:29:38.284Z,70272.19
2022-10-31T23:32:07.451Z,70298.34
2022-10-31T23:34:35.296Z,70297.41
2022-10-31T23:37:02.695Z,70329.13
2022-10-31T23:39:30.427Z,70312.03
2022-10-31T23:41:57.969Z,70278.50
2022-10-31T23:44:25.378Z,70289.09
2022-10-31T23:46:52.904Z,70306.72
2022-10-31T23:49:20.409Z,70314.38
2022-10-31T23:51:47.879Z,70349.69
2022-10-31T23:54:15.513Z,70342.59
2022-10-31T23:56:43.034Z,70330.78
2022-10-31T23:59:10.486Z,70351.97
